sensor_id;sensor_type;location;lat;lon;timestamp;temperature;humidity
19868;DHT22;10096;51.112;6.776;2023-04-06T00:00:16;3.70;99.90
19868;DHT22;10096;51.112;6.776;2023-04-06T00:02:43;3.50;99.90
19868;DHT22;10096;51.112;6.776;2023-04-06T00:05:10;3.70;99.90
19868;DHT22;10096;51.112;6.776;2023-04-06T00:07:37;3.50;99.90
19868;DHT22;10096;51.112;6.776;2023-04-06T00:10:05;3.80;99.90
19868;DHT22;10096;51.112;6.776;2023-04-06T00:12:34;3.70;99.90
19868;DHT22;10096;51.112;6.776;2023-04-06T00:15:01;3.60;99.90
19868;DHT22;10096;51.112;6.776;2023-04-06T00:17:30;3.60;99.90
19868;DHT22;10096;51.112;6.776;2023-04-06T00:19:56;3.30;1.00
19868;DHT22;10096;51.112;6.776;2023-04-06T00:22:24;3.50;1.00
19868;DHT22;10096;51.112;6.776;2023-04-06T00:24:50;3.50;1.00
19868;DHT22;10096;51.112;6.776;2023-04-06T00:27:19;3.50;1.00
19868;DHT22;10096;51.112;6.776;2023-04-06T00:29:47;3.50;1.00
19868;DHT22;10096;51.112;6.776;2023-04-06T00:32:14;3.30;1.00
19868;DHT22;10096;51.112;6.776;2023-04-06T00:34:41;3.30;1.00
19868;DHT22;10096;51.112;6.776;2023-04-06T00:37:08;3.00;1.00
19868;DHT22;10096;51.112;6.776;2023-04-06T00:39:35;3.30;1.00
19868;DHT22;10096;51.112;6.776;2023-04-06T00:42:09;3.40;1.00
19868;DHT22;10096;51.112;6.776;2023-04-06T00:44:37;3.30;1.00
19868;DHT22;10096;51.112;6.776;2023-04-06T00:47:05;3.40;1.00
19868;DHT22;10096;51.112;6.776;2023-04-06T00:49:32;3.30;1.00
19868;DHT22;10096;51.112;6.776;2023-04-06T00:51:59;3.30;1.00
19868;DHT22;10096;51.112;6.776;2023-04-06T00:54:26;3.20;1.00
19868;DHT22;10096;51.112;6.776;2023-04-06T00:56:53;3.30;1.00
19868;DHT22;10096;51.112;6.776;2023-04-06T00:59:20;3.30;1.00
19868;DHT22;10096;51.112;6.776;2023-04-06T01:01:48;3.30;1.00
19868;DHT22;10096;51.112;6.776;2023-04-06T01:04:18;3.70;1.00
19868;DHT22;10096;51.112;6.776;2023-04-06T01:06:45;3.50;1.00
19868;DHT22;10096;51.112;6.776;2023-04-06T01:09:12;3.20;1.00
19868;DHT22;10096;51.112;6.776;2023-04-06T01:11:39;3.20;1.00
19868;DHT22;10096;51.112;6.776;2023-04-06T01:14:06;3.10;1.00
19868;DHT22;10096;51.112;6.776;2023-04-06T01:16:33;3.30;1.00
19868;DHT22;10096;51.112;6.776;2023-04-06T01:19:01;3.10;1.00
19868;DHT22;10096;51.112;6.776;2023-04-06T01:21:34;3.10;1.00
19868;DHT22;10096;51.112;6.776;2023-04-06T01:24:03;3.10;1.00
19868;DHT22;10096;51.112;6.776;2023-04-06T01:26:33;3.20;1.00
19868;DHT22;10096;51.112;6.776;2023-04-06T01:29:01;3.20;1.00
19868;DHT22;10096;51.112;6.776;2023-04-06T01:31:28;3.20;1.00
19868;DHT22;10096;51.112;6.776;2023-04-06T01:33:55;3.20;1.00
19868;DHT22;10096;51.112;6.776;2023-04-06T01:36:22;3.10;1.00
19868;DHT22;10096;51.112;6.776;2023-04-06T01:38:49;3.30;1.00
19868;DHT22;10096;51.112;6.776;2023-04-06T01:41:19;3.10;1.00
19868;DHT22;10096;51.112;6.776;2023-04-06T01:43:47;3.10;1.00
19868;DHT22;10096;51.112;6.776;2023-04-06T01:46:15;3.00;1.00
19868;DHT22;10096;51.112;6.776;2023-04-06T01:48:42;3.30;1.00
19868;DHT22;10096;51.112;6.776;2023-04-06T01:51:09;3.00;1.00
19868;DHT22;10096;51.112;6.776;2023-04-06T01:53:35;3.00;1.00
19868;DHT22;10096;51.112;6.776;2023-04-06T01:56:04;3.20;1.00
19868;DHT22;10096;51.112;6.776;2023-04-06T01:58:33;3.00;1.00
19868;DHT22;10096;51.112;6.776;2023-04-06T02:01:00;3.10;1.00
19868;DHT22;10096;51.112;6.776;2023-04-06T02:03:27;3.00;1.00
19868;DHT22;10096;51.112;6.776;2023-04-06T02:05:54;3.00;1.00
19868;DHT22;10096;51.112;6.776;2023-04-06T02:08:21;3.20;1.00
19868;DHT22;10096;51.112;6.776;2023-04-06T02:10:48;3.00;1.00
19868;DHT22;10096;51.112;6.776;2023-04-06T02:13:15;3.30;1.00
19868;DHT22;10096;51.112;6.776;2023-04-06T02:15:43;3.00;1.00
19868;DHT22;10096;51.112;6.776;2023-04-06T02:18:10;3.20;1.00
19868;DHT22;10096;51.112;6.776;2023-04-06T02:20:37;3.00;1.00
19868;DHT22;10096;51.112;6.776;2023-04-06T02:23:05;3.10;1.00
19868;DHT22;10096;51.112;6.776;2023-04-06T02:25:32;3.00;1.00
19868;DHT22;10096;51.112;6.776;2023-04-06T02:28:00;2.90;1.00
19868;DHT22;10096;51.112;6.776;2023-04-06T02:30:29;3.00;1.00
19868;DHT22;10096;51.112;6.776;2023-04-06T02:32:59;3.00;1.00
19868;DHT22;10096;51.112;6.776;2023-04-06T02:35:28;2.90;1.00
19868;DHT22;10096;51.112;6.776;2023-04-06T02:37:55;2.90;1.00
19868;DHT22;10096;51.112;6.776;2023-04-06T02:40:22;2.90;1.00
19868;DHT22;10096;51.112;6.776;2023-04-06T02:42:49;2.80;1.00
19868;DHT22;10096;51.112;6.776;2023-04-06T02:45:16;2.80;1.00
19868;DHT22;10096;51.112;6.776;2023-04-06T02:47:42;2.70;1.00
19868;DHT22;10096;51.112;6.776;2023-04-06T02:50:11;2.90;1.00
19868;DHT22;10096;51.112;6.776;2023-04-06T02:52:38;2.70;1.00
19868;DHT22;10096;51.112;6.776;2023-04-06T02:55:06;2.80;1.00
19868;DHT22;10096;51.112;6.776;2023-04-06T02:57:33;2.90;1.00
19868;DHT22;10096;51.112;6.776;2023-04-06T03:00:00;2.80;1.00
19868;DHT22;10096;51.112;6.776;2023-04-06T03:02:27;2.80;1.00
19868;DHT22;10096;51.112;6.776;2023-04-06T03:04:53;2.80;1.00
19868;DHT22;10096;51.112;6.776;2023-04-06T03:07:22;2.80;1.00
19868;DHT22;10096;51.112;6.776;2023-04-06T03:09:49;2.80;1.00
19868;DHT22;10096;51.112;6.776;2023-04-06T03:12:16;2.80;1.00
19868;DHT22;10096;51.112;6.776;2023-04-06T03:14:43;2.70;1.00
19868;DHT22;10096;51.112;6.776;2023-04-06T03:17:09;2.80;1.00
19868;DHT22;10096;51.112;6.776;2023-04-06T03:19:36;2.90;1.00
19868;DHT22;10096;51.112;6.776;2023-04-06T03:22:03;2.80;1.00
19868;DHT22;10096;51.112;6.776;2023-04-06T03:24:32;2.90;1.00
19868;DHT22;10096;51.112;6.776;2023-04-06T03:26:58;2.80;1.00
19868;DHT22;10096;51.112;6.776;2023-04-06T03:29:25;3.20;1.00
19868;DHT22;10096;51.112;6.776;2023-04-06T03:31:53;2.90;1.00
19868;DHT22;10096;51.112;6.776;2023-04-06T03:34:20;2.90;1.00
19868;DHT22;10096;51.112;6.776;2023-04-06T03:36:47;2.80;1.00
19868;DHT22;10096;51.112;6.776;2023-04-06T03:39:15;2.70;1.00
19868;DHT22;10096;51.112;6.776;2023-04-06T03:41:43;2.70;1.00
19868;DHT22;10096;51.112;6.776;2023-04-06T03:44:11;2.70;1.00
19868;DHT22;10096;51.112;6.776;2023-04-06T03:46:37;2.80;1.00
19868;DHT22;10096;51.112;6.776;2023-04-06T03:49:04;2.80;1.00
19868;DHT22;10096;51.112;6.776;2023-04-06T03:51:31;2.70;1.00
19868;DHT22;10096;51.112;6.776;2023-04-06T03:53:58;2.70;1.00
19868;DHT22;10096;51.112;6.776;2023-04-06T03:56:25;2.70;1.00
19868;DHT22;10096;51.112;6.776;2023-04-06T03:58:53;2.90;1.00
19868;DHT22;10096;51.112;6.776;2023-04-06T04:01:20;2.60;1.00
19868;DHT22;10096;51.112;6.776;2023-04-06T04:03:48;2.60;1.00
19868;DHT22;10096;51.112;6.776;2023-04-06T04:06:15;2.60;1.00
19868;DHT22;10096;51.112;6.776;2023-04-06T04:08:43;2.60;1.00
19868;DHT22;10096;51.112;6.776;2023-04-06T04:11:10;2.60;1.00
19868;DHT22;10096;51.112;6.776;2023-04-06T04:13:37;2.50;1.00
19868;DHT22;10096;51.112;6.776;2023-04-06T04:16:06;2.50;1.00
19868;DHT22;10096;51.112;6.776;2023-04-06T04:18:33;2.50;1.00
19868;DHT22;10096;51.112;6.776;2023-04-06T04:21:02;2.40;1.00
19868;DHT22;10096;51.112;6.776;2023-04-06T04:23:29;2.40;1.00
19868;DHT22;10096;51.112;6.776;2023-04-06T04:25:56;2.40;1.00
19868;DHT22;10096;51.112;6.776;2023-04-06T04:28:23;2.40;1.00
19868;DHT22;10096;51.112;6.776;2023-04-06T04:30:50;2.40;1.00
19868;DHT22;10096;51.112;6.776;2023-04-06T04:33:18;2.40;1.00
19868;DHT22;10096;51.112;6.776;2023-04-06T04:35:46;2.50;1.00
19868;DHT22;10096;51.112;6.776;2023-04-06T04:38:13;2.50;1.00
19868;DHT22;10096;51.112;6.776;2023-04-06T04:40:41;2.60;1.00
19868;DHT22;10096;51.112;6.776;2023-04-06T04:43:07;2.60;1.00
19868;DHT22;10096;51.112;6.776;2023-04-06T04:45:34;2.60;1.00
19868;DHT22;10096;51.112;6.776;2023-04-06T04:48:01;2.50;1.00
19868;DHT22;10096;51.112;6.776;2023-04-06T04:50:31;2.50;1.00
19868;DHT22;10096;51.112;6.776;2023-04-06T04:52:58;2.60;1.00
19868;DHT22;10096;51.112;6.776;2023-04-06T04:55:25;2.60;1.00
19868;DHT22;10096;51.112;6.776;2023-04-06T04:57:52;2.60;1.00
19868;DHT22;10096;51.112;6.776;2023-04-06T05:00:19;2.60;1.00
19868;DHT22;10096;51.112;6.776;2023-04-06T05:02:47;2.70;1.00
19868;DHT22;10096;51.112;6.776;2023-04-06T05:05:14;2.60;1.00
19868;DHT22;10096;51.112;6.776;2023-04-06T05:07:42;2.60;1.00
19868;DHT22;10096;51.112;6.776;2023-04-06T05:10:20;2.70;1.00
19868;DHT22;10096;51.112;6.776;2023-04-06T05:12:47;2.80;1.00
19868;DHT22;10096;51.112;6.776;2023-04-06T05:15:14;2.90;1.00
19868;DHT22;10096;51.112;6.776;2023-04-06T05:17:42;3.20;1.00
19868;DHT22;10096;51.112;6.776;2023-04-06T05:20:10;3.70;1.00
19868;DHT22;10096;51.112;6.776;2023-04-06T05:22:37;4.30;1.00
19868;DHT22;10096;51.112;6.776;2023-04-06T05:25:06;4.70;1.00
19868;DHT22;10096;51.112;6.776;2023-04-06T05:27:33;5.20;1.00
19868;DHT22;10096;51.112;6.776;2023-04-06T05:30:00;5.50;99.90
19868;DHT22;10096;51.112;6.776;2023-04-06T05:32:28;5.80;99.90
19868;DHT22;10096;51.112;6.776;2023-04-06T05:34:55;6.30;99.90
19868;DHT22;10096;51.112;6.776;2023-04-06T05:37:22;6.20;99.90
19868;DHT22;10096;51.112;6.776;2023-04-06T05:39:49;5.70;99.90
19868;DHT22;10096;51.112;6.776;2023-04-06T05:42:18;5.20;99.90
19868;DHT22;10096;51.112;6.776;2023-04-06T05:44:45;4.80;99.90
19868;DHT22;10096;51.112;6.776;2023-04-06T05:47:12;4.80;99.90
19868;DHT22;10096;51.112;6.776;2023-04-06T05:49:41;4.80;99.90
19868;DHT22;10096;51.112;6.776;2023-04-06T05:52:08;5.00;99.90
19868;DHT22;10096;51.112;6.776;2023-04-06T05:54:35;5.40;99.90
19868;DHT22;10096;51.112;6.776;2023-04-06T05:57:03;6.20;99.90
19868;DHT22;10096;51.112;6.776;2023-04-06T05:59:33;6.90;99.90
19868;DHT22;10096;51.112;6.776;2023-04-06T06:02:00;7.40;99.90
19868;DHT22;10096;51.112;6.776;2023-04-06T06:04:27;7.70;99.90
19868;DHT22;10096;51.112;6.776;2023-04-06T06:06:54;8.30;99.90
19868;DHT22;10096;51.112;6.776;2023-04-06T06:09:21;8.80;99.90
19868;DHT22;10096;51.112;6.776;2023-04-06T06:11:48;9.40;99.90
19868;DHT22;10096;51.112;6.776;2023-04-06T06:14:18;9.60;99.90
19868;DHT22;10096;51.112;6.776;2023-04-06T06:16:47;9.10;99.90
19868;DHT22;10096;51.112;6.776;2023-04-06T06:19:14;9.20;99.90
19868;DHT22;10096;51.112;6.776;2023-04-06T06:21:41;9.40;99.90
19868;DHT22;10096;51.112;6.776;2023-04-06T06:24:08;9.50;99.90
19868;DHT22;10096;51.112;6.776;2023-04-06T06:26:35;10.00;99.90
19868;DHT22;10096;51.112;6.776;2023-04-06T06:29:04;10.60;99.90
19868;DHT22;10096;51.112;6.776;2023-04-06T06:31:33;11.20;99.90
19868;DHT22;10096;51.112;6.776;2023-04-06T06:34:02;11.70;99.90
19868;DHT22;10096;51.112;6.776;2023-04-06T06:36:30;11.70;99.90
19868;DHT22;10096;51.112;6.776;2023-04-06T06:38:57;11.70;99.90
19868;DHT22;10096;51.112;6.776;2023-04-06T06:41:26;12.30;99.90
19868;DHT22;10096;51.112;6.776;2023-04-06T06:43:53;12.60;99.90
19868;DHT22;10096;51.112;6.776;2023-04-06T06:46:20;13.00;99.90
19868;DHT22;10096;51.112;6.776;2023-04-06T06:48:47;13.50;99.90
19868;DHT22;10096;51.112;6.776;2023-04-06T06:51:16;14.10;99.90
19868;DHT22;10096;51.112;6.776;2023-04-06T06:53:43;14.00;99.90
19868;DHT22;10096;51.112;6.776;2023-04-06T06:56:10;14.00;99.90
19868;DHT22;10096;51.112;6.776;2023-04-06T06:58:38;13.00;99.90
19868;DHT22;10096;51.112;6.776;2023-04-06T07:01:06;13.00;99.90
19868;DHT22;10096;51.112;6.776;2023-04-06T07:03:33;13.50;99.90
19868;DHT22;10096;51.112;6.776;2023-04-06T07:06:00;14.00;99.90
19868;DHT22;10096;51.112;6.776;2023-04-06T07:08:28;14.30;99.90
19868;DHT22;10096;51.112;6.776;2023-04-06T07:10:55;14.50;99.90
19868;DHT22;10096;51.112;6.776;2023-04-06T07:13:22;14.80;99.90
19868;DHT22;10096;51.112;6.776;2023-04-06T07:15:50;14.80;99.90
19868;DHT22;10096;51.112;6.776;2023-04-06T07:18:18;14.10;99.90
19868;DHT22;10096;51.112;6.776;2023-04-06T07:20:45;13.20;99.90
19868;DHT22;10096;51.112;6.776;2023-04-06T07:23:13;12.80;99.90
19868;DHT22;10096;51.112;6.776;2023-04-06T07:25:41;12.30;99.90
19868;DHT22;10096;51.112;6.776;2023-04-06T07:28:09;11.90;99.90
19868;DHT22;10096;51.112;6.776;2023-04-06T07:30:37;11.50;99.90
19868;DHT22;10096;51.112;6.776;2023-04-06T07:33:04;11.10;99.90
19868;DHT22;10096;51.112;6.776;2023-04-06T07:35:33;10.90;99.90
19868;DHT22;10096;51.112;6.776;2023-04-06T07:38:00;11.00;99.90
19868;DHT22;10096;51.112;6.776;2023-04-06T07:40:28;11.30;99.90
19868;DHT22;10096;51.112;6.776;2023-04-06T07:42:58;11.30;99.90
19868;DHT22;10096;51.112;6.776;2023-04-06T07:45:27;11.60;99.90
19868;DHT22;10096;51.112;6.776;2023-04-06T07:47:55;11.80;99.90
19868;DHT22;10096;51.112;6.776;2023-04-06T07:50:22;12.20;99.90
19868;DHT22;10096;51.112;6.776;2023-04-06T07:52:49;12.30;99.90
19868;DHT22;10096;51.112;6.776;2023-04-06T07:55:16;12.40;99.90
19868;DHT22;10096;51.112;6.776;2023-04-06T07:57:43;12.90;99.90
19868;DHT22;10096;51.112;6.776;2023-04-06T08:00:13;13.20;99.90
19868;DHT22;10096;51.112;6.776;2023-04-06T08:02:40;13.60;99.90
19868;DHT22;10096;51.112;6.776;2023-04-06T08:05:08;13.50;99.90
19868;DHT22;10096;51.112;6.776;2023-04-06T08:07:35;14.20;99.90
19868;DHT22;10096;51.112;6.776;2023-04-06T08:10:03;14.40;99.90
19868;DHT22;10096;51.112;6.776;2023-04-06T08:12:31;14.60;99.90
19868;DHT22;10096;51.112;6.776;2023-04-06T08:14:58;14.00;99.90
19868;DHT22;10096;51.112;6.776;2023-04-06T08:17:29;14.30;99.90
19868;DHT22;10096;51.112;6.776;2023-04-06T08:19:56;14.60;99.90
19868;DHT22;10096;51.112;6.776;2023-04-06T08:22:23;14.70;99.90
19868;DHT22;10096;51.112;6.776;2023-04-06T08:24:50;14.50;99.90
19868;DHT22;10096;51.112;6.776;2023-04-06T08:27:17;14.20;99.90
19868;DHT22;10096;51.112;6.776;2023-04-06T08:29:45;14.00;99.90
19868;DHT22;10096;51.112;6.776;2023-04-06T08:32:11;13.70;99.90
19868;DHT22;10096;51.112;6.776;2023-04-06T08:34:40;13.60;99.90
19868;DHT22;10096;51.112;6.776;2023-04-06T08:37:09;13.80;99.90
19868;DHT22;10096;51.112;6.776;2023-04-06T08:39:37;14.30;99.90
19868;DHT22;10096;51.112;6.776;2023-04-06T08:42:12;14.40;99.90
19868;DHT22;10096;51.112;6.776;2023-04-06T08:44:42;14.80;99.90
19868;DHT22;10096;51.112;6.776;2023-04-06T08:47:09;14.80;99.90
19868;DHT22;10096;51.112;6.776;2023-04-06T08:49:37;14.90;99.90
19868;DHT22;10096;51.112;6.776;2023-04-06T08:52:07;14.50;99.90
19868;DHT22;10096;51.112;6.776;2023-04-06T08:54:35;14.30;99.90
19868;DHT22;10096;51.112;6.776;2023-04-06T08:57:02;13.70;99.90
19868;DHT22;10096;51.112;6.776;2023-04-06T08:59:30;13.40;99.90
19868;DHT22;10096;51.112;6.776;2023-04-06T09:01:57;13.10;99.90
19868;DHT22;10096;51.112;6.776;2023-04-06T09:04:26;13.30;99.90
19868;DHT22;10096;51.112;6.776;2023-04-06T09:06:53;13.30;99.90
19868;DHT22;10096;51.112;6.776;2023-04-06T09:09:21;13.00;99.90
19868;DHT22;10096;51.112;6.776;2023-04-06T09:11:51;13.10;99.90
19868;DHT22;10096;51.112;6.776;2023-04-06T09:14:34;13.10;99.90
19868;DHT22;10096;51.112;6.776;2023-04-06T09:17:01;13.00;99.90
19868;DHT22;10096;51.112;6.776;2023-04-06T09:19:28;13.00;99.90
19868;DHT22;10096;51.112;6.776;2023-04-06T09:22:02;12.80;99.90
19868;DHT22;10096;51.112;6.776;2023-04-06T09:24:41;13.20;99.90
19868;DHT22;10096;51.112;6.776;2023-04-06T09:27:08;12.90;99.90
19868;DHT22;10096;51.112;6.776;2023-04-06T09:29:38;12.90;99.90
19868;DHT22;10096;51.112;6.776;2023-04-06T09:32:08;13.00;99.90
19868;DHT22;10096;51.112;6.776;2023-04-06T09:34:37;13.20;99.90
19868;DHT22;10096;51.112;6.776;2023-04-06T09:37:13;13.40;99.90
19868;DHT22;10096;51.112;6.776;2023-04-06T09:39:43;13.40;99.90
19868;DHT22;10096;51.112;6.776;2023-04-06T09:42:12;13.60;99.90
19868;DHT22;10096;51.112;6.776;2023-04-06T09:44:50;13.70;99.90
19868;DHT22;10096;51.112;6.776;2023-04-06T09:47:17;13.80;99.90
19868;DHT22;10096;51.112;6.776;2023-04-06T09:49:46;13.80;99.90
19868;DHT22;10096;51.112;6.776;2023-04-06T09:52:14;13.70;99.90
19868;DHT22;10096;51.112;6.776;2023-04-06T09:54:43;13.90;99.90
19868;DHT22;10096;51.112;6.776;2023-04-06T09:57:19;14.20;99.90
19868;DHT22;10096;51.112;6.776;2023-04-06T09:59:51;14.10;99.90
19868;DHT22;10096;51.112;6.776;2023-04-06T10:02:24;14.10;99.90
19868;DHT22;10096;51.112;6.776;2023-04-06T10:04:56;14.20;99.90
19868;DHT22;10096;51.112;6.776;2023-04-06T10:07:26;14.40;99.90
19868;DHT22;10096;51.112;6.776;2023-04-06T10:09:55;14.50;99.90
19868;DHT22;10096;51.112;6.776;2023-04-06T10:12:25;14.40;99.90
19868;DHT22;10096;51.112;6.776;2023-04-06T10:14:52;14.50;99.90
19868;DHT22;10096;51.112;6.776;2023-04-06T10:17:20;14.90;99.90
19868;DHT22;10096;51.112;6.776;2023-04-06T10:19:52;14.60;99.90
19868;DHT22;10096;51.112;6.776;2023-04-06T10:22:26;14.70;99.90
19868;DHT22;10096;51.112;6.776;2023-04-06T10:24:57;14.70;99.90
19868;DHT22;10096;51.112;6.776;2023-04-06T10:27:28;15.10;99.90
19868;DHT22;10096;51.112;6.776;2023-04-06T10:30:01;15.30;99.90
19868;DHT22;10096;51.112;6.776;2023-04-06T10:32:33;15.60;99.90
19868;DHT22;10096;51.112;6.776;2023-04-06T10:35:08;16.10;99.90
19868;DHT22;10096;51.112;6.776;2023-04-06T10:37:50;15.80;99.90
19868;DHT22;10096;51.112;6.776;2023-04-06T10:40:23;15.50;99.90
19868;DHT22;10096;51.112;6.776;2023-04-06T10:43:08;15.40;99.90
19868;DHT22;10096;51.112;6.776;2023-04-06T10:45:35;15.20;99.90
19868;DHT22;10096;51.112;6.776;2023-04-06T10:48:13;15.50;99.90
19868;DHT22;10096;51.112;6.776;2023-04-06T10:50:41;15.50;99.90
19868;DHT22;10096;51.112;6.776;2023-04-06T10:53:08;15.60;99.90
19868;DHT22;10096;51.112;6.776;2023-04-06T10:55:39;15.50;99.90
19868;DHT22;10096;51.112;6.776;2023-04-06T10:58:06;15.60;99.90
19868;DHT22;10096;51.112;6.776;2023-04-06T11:00:54;15.60;99.90
19868;DHT22;10096;51.112;6.776;2023-04-06T11:03:27;15.60;99.90
19868;DHT22;10096;51.112;6.776;2023-04-06T11:05:54;15.40;99.90
19868;DHT22;10096;51.112;6.776;2023-04-06T11:09:07;15.20;99.90
19868;DHT22;10096;51.112;6.776;2023-04-06T11:11:18;15.20;99.90
19868;DHT22;10096;51.112;6.776;2023-04-06T11:13:48;15.10;99.90
19868;DHT22;10096;51.112;6.776;2023-04-06T11:16:17;15.40;99.90
19868;DHT22;10096;51.112;6.776;2023-04-06T11:18:55;15.80;99.90
19868;DHT22;10096;51.112;6.776;2023-04-06T11:21:33;16.10;99.90
19868;DHT22;10096;51.112;6.776;2023-04-06T11:24:09;16.20;99.90
19868;DHT22;10096;51.112;6.776;2023-04-06T11:26:39;16.10;99.90
19868;DHT22;10096;51.112;6.776;2023-04-06T11:29:07;16.10;99.90
19868;DHT22;10096;51.112;6.776;2023-04-06T11:31:40;16.00;99.90
19868;DHT22;10096;51.112;6.776;2023-04-06T11:34:11;16.00;99.90
19868;DHT22;10096;51.112;6.776;2023-04-06T11:36:40;16.10;99.90
19868;DHT22;10096;51.112;6.776;2023-04-06T11:39:09;16.20;99.90
19868;DHT22;10096;51.112;6.776;2023-04-06T11:41:37;15.90;99.90
19868;DHT22;10096;51.112;6.776;2023-04-06T11:44:05;16.10;99.90
19868;DHT22;10096;51.112;6.776;2023-04-06T11:46:33;16.50;99.90
19868;DHT22;10096;51.112;6.776;2023-04-06T11:49:01;16.50;99.90
19868;DHT22;10096;51.112;6.776;2023-04-06T11:51:28;16.60;99.90
19868;DHT22;10096;51.112;6.776;2023-04-06T11:53:55;16.50;99.90
19868;DHT22;10096;51.112;6.776;2023-04-06T11:56:27;16.60;99.90
19868;DHT22;10096;51.112;6.776;2023-04-06T11:58:57;16.50;99.90
19868;DHT22;10096;51.112;6.776;2023-04-06T12:01:26;16.60;99.90
19868;DHT22;10096;51.112;6.776;2023-04-06T12:03:53;16.60;99.90
19868;DHT22;10096;51.112;6.776;2023-04-06T12:06:20;16.20;99.90
19868;DHT22;10096;51.112;6.776;2023-04-06T12:08:47;16.30;99.90
19868;DHT22;10096;51.112;6.776;2023-04-06T12:11:14;16.90;99.90
19868;DHT22;10096;51.112;6.776;2023-04-06T12:13:41;17.30;99.90
19868;DHT22;10096;51.112;6.776;2023-04-06T12:16:09;17.20;99.90
19868;DHT22;10096;51.112;6.776;2023-04-06T12:18:36;17.20;99.90
19868;DHT22;10096;51.112;6.776;2023-04-06T12:21:03;17.10;99.90
19868;DHT22;10096;51.112;6.776;2023-04-06T12:23:30;16.80;99.90
19868;DHT22;10096;51.112;6.776;2023-04-06T12:25:57;16.80;99.90
19868;DHT22;10096;51.112;6.776;2023-04-06T12:28:25;16.90;99.90
19868;DHT22;10096;51.112;6.776;2023-04-06T12:30:52;17.00;99.90
19868;DHT22;10096;51.112;6.776;2023-04-06T12:33:22;16.80;99.90
19868;DHT22;10096;51.112;6.776;2023-04-06T12:35:48;17.00;99.90
19868;DHT22;10096;51.112;6.776;2023-04-06T12:38:15;17.20;99.90
19868;DHT22;10096;51.112;6.776;2023-04-06T12:40:42;17.10;99.90
19868;DHT22;10096;51.112;6.776;2023-04-06T12:43:09;17.20;99.90
19868;DHT22;10096;51.112;6.776;2023-04-06T12:45:38;17.10;99.90
19868;DHT22;10096;51.112;6.776;2023-04-06T12:48:06;17.40;99.90
19868;DHT22;10096;51.112;6.776;2023-04-06T12:50:36;17.10;99.90
19868;DHT22;10096;51.112;6.776;2023-04-06T12:53:03;16.90;99.90
19868;DHT22;10096;51.112;6.776;2023-04-06T12:55:30;16.80;99.90
19868;DHT22;10096;51.112;6.776;2023-04-06T12:57:59;16.10;99.90
19868;DHT22;10096;51.112;6.776;2023-04-06T13:00:27;16.20;99.90
19868;DHT22;10096;51.112;6.776;2023-04-06T13:02:54;16.40;99.90
19868;DHT22;10096;51.112;6.776;2023-04-06T13:05:21;16.70;99.90
19868;DHT22;10096;51.112;6.776;2023-04-06T13:07:53;16.90;99.90
19868;DHT22;10096;51.112;6.776;2023-04-06T13:10:20;17.00;99.90
19868;DHT22;10096;51.112;6.776;2023-04-06T13:12:47;17.00;99.90
19868;DHT22;10096;51.112;6.776;2023-04-06T13:15:15;17.00;99.90
19868;DHT22;10096;51.112;6.776;2023-04-06T13:17:41;16.70;99.90
19868;DHT22;10096;51.112;6.776;2023-04-06T13:20:09;15.90;99.90
19868;DHT22;10096;51.112;6.776;2023-04-06T13:22:36;16.10;99.90
19868;DHT22;10096;51.112;6.776;2023-04-06T13:25:07;15.80;99.90
19868;DHT22;10096;51.112;6.776;2023-04-06T13:27:34;15.40;99.90
19868;DHT22;10096;51.112;6.776;2023-04-06T13:30:02;15.10;99.90
19868;DHT22;10096;51.112;6.776;2023-04-06T13:32:29;15.10;99.90
19868;DHT22;10096;51.112;6.776;2023-04-06T13:34:57;14.70;99.90
19868;DHT22;10096;51.112;6.776;2023-04-06T13:37:23;14.80;99.90
19868;DHT22;10096;51.112;6.776;2023-04-06T13:39:51;15.00;99.90
19868;DHT22;10096;51.112;6.776;2023-04-06T13:42:19;14.90;99.90
19868;DHT22;10096;51.112;6.776;2023-04-06T13:44:46;14.70;99.90
19868;DHT22;10096;51.112;6.776;2023-04-06T13:47:16;14.80;99.90
19868;DHT22;10096;51.112;6.776;2023-04-06T13:49:43;14.70;99.90
19868;DHT22;10096;51.112;6.776;2023-04-06T13:52:11;14.70;99.90
19868;DHT22;10096;51.112;6.776;2023-04-06T13:54:38;15.00;99.90
19868;DHT22;10096;51.112;6.776;2023-04-06T13:57:07;15.40;99.90
19868;DHT22;10096;51.112;6.776;2023-04-06T13:59:37;15.10;99.90
19868;DHT22;10096;51.112;6.776;2023-04-06T14:02:05;14.90;99.90
19868;DHT22;10096;51.112;6.776;2023-04-06T14:04:33;14.70;99.90
19868;DHT22;10096;51.112;6.776;2023-04-06T14:07:01;14.40;99.90
19868;DHT22;10096;51.112;6.776;2023-04-06T14:09:29;14.20;99.90
19868;DHT22;10096;51.112;6.776;2023-04-06T14:11:56;14.20;99.90
19868;DHT22;10096;51.112;6.776;2023-04-06T14:14:23;14.20;99.90
19868;DHT22;10096;51.112;6.776;2023-04-06T14:16:52;14.10;99.90
19868;DHT22;10096;51.112;6.776;2023-04-06T14:19:20;14.10;99.90
19868;DHT22;10096;51.112;6.776;2023-04-06T14:21:47;14.00;99.90
19868;DHT22;10096;51.112;6.776;2023-04-06T14:24:15;13.90;99.90
19868;DHT22;10096;51.112;6.776;2023-04-06T14:26:43;13.70;99.90
19868;DHT22;10096;51.112;6.776;2023-04-06T14:29:10;13.50;99.90
19868;DHT22;10096;51.112;6.776;2023-04-06T14:31:37;13.40;99.90
19868;DHT22;10096;51.112;6.776;2023-04-06T14:34:05;13.10;99.90
19868;DHT22;10096;51.112;6.776;2023-04-06T14:36:33;13.20;99.90
19868;DHT22;10096;51.112;6.776;2023-04-06T14:39:02;13.30;99.90
19868;DHT22;10096;51.112;6.776;2023-04-06T14:41:31;13.20;99.90
19868;DHT22;10096;51.112;6.776;2023-04-06T14:43:58;12.60;99.90
19868;DHT22;10096;51.112;6.776;2023-04-06T14:46:26;12.30;99.90
19868;DHT22;10096;51.112;6.776;2023-04-06T14:48:55;12.40;99.90
19868;DHT22;10096;51.112;6.776;2023-04-06T14:51:25;12.20;99.90
19868;DHT22;10096;51.112;6.776;2023-04-06T14:53:53;11.80;99.90
19868;DHT22;10096;51.112;6.776;2023-04-06T14:56:20;11.60;99.90
19868;DHT22;10096;51.112;6.776;2023-04-06T14:58:48;11.40;99.90
19868;DHT22;10096;51.112;6.776;2023-04-06T15:01:17;11.40;99.90
19868;DHT22;10096;51.112;6.776;2023-04-06T15:03:44;11.50;99.90
19868;DHT22;10096;51.112;6.776;2023-04-06T15:06:12;11.30;99.90
19868;DHT22;10096;51.112;6.776;2023-04-06T15:08:42;11.10;99.90
19868;DHT22;10096;51.112;6.776;2023-04-06T15:11:10;11.00;1.00
19868;DHT22;10096;51.112;6.776;2023-04-06T15:13:38;10.90;1.00
19868;DHT22;10096;51.112;6.776;2023-04-06T15:16:06;11.00;1.00
19868;DHT22;10096;51.112;6.776;2023-04-06T15:18:33;10.90;1.00
19868;DHT22;10096;51.112;6.776;2023-04-06T15:21:02;10.80;1.00
19868;DHT22;10096;51.112;6.776;2023-04-06T15:23:30;10.70;1.00
19868;DHT22;10096;51.112;6.776;2023-04-06T15:26:00;10.70;1.00
19868;DHT22;10096;51.112;6.776;2023-04-06T15:28:27;10.50;1.00
19868;DHT22;10096;51.112;6.776;2023-04-06T15:30:55;10.50;1.00
19868;DHT22;10096;51.112;6.776;2023-04-06T15:33:23;10.50;1.00
19868;DHT22;10096;51.112;6.776;2023-04-06T15:35:50;10.40;1.00
19868;DHT22;10096;51.112;6.776;2023-04-06T15:38:17;10.30;1.00
19868;DHT22;10096;51.112;6.776;2023-04-06T15:40:45;10.20;1.00
19868;DHT22;10096;51.112;6.776;2023-04-06T15:43:15;10.30;1.00
19868;DHT22;10096;51.112;6.776;2023-04-06T15:45:42;10.20;1.00
19868;DHT22;10096;51.112;6.776;2023-04-06T15:48:09;10.20;1.00